Time;durP1;ratioP1;P1;durP2;ratioP2;P2;SDS_P1;SDS_P2;PMS_P1;PMS_P2;Temp;Humidity;BMP_temperature;BMP_pressure;BME280_temperature;BME280_humidity;BME280_pressure;Samples;Min_cycle;Max_cycle;Signal;HPM_P1;HPM_P2
2022/08/26 00:01:40;;;;;;;17.85;9.20;;;;;;;17.64;83.19;98443.38;4234925;27;20172;-71
2022/08/26 00:03:40;;;;;;;21.63;9.50;;;;;;;17.59;82.88;98446.66;4235444;27;20042;-71
2022/08/26 00:05:42;;;;;;;13.32;8.75;;;;;;;17.60;83.25;98445.44;4235709;27;20522;-71
2022/08/26 00:07:42;;;;;;;15.73;8.85;;;;;;;17.59;83.37;98446.66;4236114;27;20086;-71
2022/08/26 00:09:43;;;;;;;21.65;9.32;;;;;;;17.58;83.48;98439.50;4235598;27;20053;-71
2022/08/26 00:11:49;;;;;;;21.27;9.52;;;;;;;17.57;83.50;98446.31;4235804;27;20039;-71
2022/08/26 00:13:49;;;;;;;15.20;8.98;;;;;;;17.55;83.29;98431.97;4235245;27;20108;-71
2022/08/26 00:15:50;;;;;;;19.00;9.55;;;;;;;17.52;83.56;98444.78;4236185;27;20487;-71
2022/08/26 00:17:51;;;;;;;21.08;9.63;;;;;;;17.50;83.34;98438.03;4234427;28;20493;-71
2022/08/26 00:19:52;;;;;;;23.38;9.57;;;;;;;17.49;83.49;98442.84;4235409;28;20119;-71
2022/08/26 00:21:53;;;;;;;25.10;10.27;;;;;;;17.47;82.87;98436.09;4235179;28;20043;-71
2022/08/26 00:23:53;;;;;;;14.70;8.40;;;;;;;17.47;83.56;98445.28;4235122;28;20438;-71
2022/08/26 00:25:53;;;;;;;16.10;9.20;;;;;;;17.44;84.05;98446.09;4236200;28;20039;-71
2022/08/26 00:27:54;;;;;;;20.95;9.40;;;;;;;17.42;83.86;98440.94;4234547;28;20051;-71
2022/08/26 00:29:54;;;;;;;14.93;9.20;;;;;;;17.39;84.37;98439.00;4234732;28;20070;-71
2022/08/26 00:31:54;;;;;;;18.17;10.00;;;;;;;17.38;84.58;98434.63;4235914;28;20089;-71
2022/08/26 00:33:55;;;;;;;16.95;9.80;;;;;;;17.35;84.49;98427.06;4235536;27;20040;-71
2022/08/26 00:35:55;;;;;;;20.85;9.85;;;;;;;17.31;84.81;98426.34;4239986;27;20098;-71
2022/08/26 00:37:56;;;;;;;17.58;9.70;;;;;;;17.33;85.29;98423.13;4240002;27;20371;-71
2022/08/26 00:39:57;;;;;;;15.38;9.48;;;;;;;17.28;85.47;98434.78;4238778;27;20047;-71
2022/08/26 00:41:57;;;;;;;16.10;9.35;;;;;;;17.20;85.84;98428.50;4239226;27;20058;-71
2022/08/26 00:43:58;;;;;;;14.10;9.50;;;;;;;17.18;86.54;98432.94;4238716;27;20390;-71
2022/08/26 00:46:03;;;;;;;30.65;11.15;;;;;;;17.11;87.34;98425.47;4239531;27;20075;-71
2022/08/26 00:48:05;;;;;;;24.02;10.52;;;;;;;17.01;88.33;98427.22;4237769;27;20475;-71
2022/08/26 00:50:09;;;;;;;19.42;9.50;;;;;;;16.95;87.72;98420.50;4238689;27;20371;-71
2022/08/26 00:52:14;;;;;;;21.08;9.90;;;;;;;16.92;87.26;98421.38;4237960;27;20023;-71
2022/08/26 00:54:16;;;;;;;20.88;9.57;;;;;;;16.90;86.19;98418.22;4238820;27;20037;-71
2022/08/26 00:56:23;;;;;;;19.10;9.40;;;;;;;16.94;84.68;98426.53;4238490;27;20548;-71
2022/08/26 00:58:41;;;;;;;24.45;9.65;;;;;;;16.93;84.44;98414.56;4238349;27;20230;-71
2022/08/26 01:00:42;;;;;;;17.98;9.15;;;;;;;16.93;84.38;98416.56;4238708;27;20039;-71
2022/08/26 01:02:44;;;;;;;13.90;8.63;;;;;;;16.91;84.88;98427.38;4238536;27;20095;-71
2022/08/26 01:04:44;;;;;;;18.48;8.80;;;;;;;16.88;85.48;98417.03;4238694;27;20073;-71
2022/08/26 01:06:47;;;;;;;24.35;10.35;;;;;;;16.88;85.16;98422.63;4238302;27;20130;-71
2022/08/26 01:08:48;;;;;;;15.55;8.68;;;;;;;16.80;85.78;98417.16;4238218;27;20309;-71
2022/08/26 01:10:48;;;;;;;21.05;10.65;;;;;;;16.76;86.23;98422.00;4238930;27;20142;-71
2022/08/26 01:12:56;;;;;;;18.33;9.50;;;;;;;16.72;86.29;98423.28;4238831;27;20456;-71
2022/08/26 01:14:57;;;;;;;18.80;9.45;;;;;;;16.71;85.34;98416.88;4238323;27;20158;-71
2022/08/26 01:16:59;;;;;;;22.45;9.02;;;;;;;16.76;84.08;98413.59;4239075;27;20114;-71
2022/08/26 01:19:09;;;;;;;17.10;9.73;;;;;;;16.75;84.80;98423.19;4237994;27;20081;-71
2022/08/26 01:21:26;;;;;;;20.95;9.80;;;;;;;16.77;85.42;98415.19;4238147;27;20043;-71
2022/08/26 01:23:35;;;;;;;13.38;8.80;;;;;;;16.73;86.23;98425.63;4238325;27;20047;-71
2022/08/26 01:25:40;;;;;;;23.38;10.60;;;;;;;16.66;87.34;98428.50;4238298;27;20039;-71
2022/08/26 01:27:41;;;;;;;20.23;9.50;;;;;;;16.57;87.85;98414.25;4238513;27;20466;-71
2022/08/26 01:29:44;;;;;;;25.77;10.00;;;;;;;16.53;88.04;98431.03;4238263;27;20366;-71
2022/08/26 01:31:51;;;;;;;25.27;11.50;;;;;;;16.51;88.28;98430.69;4238145;27;20043;-71
2022/08/26 01:34:00;;;;;;;21.27;10.52;;;;;;;16.47;88.24;98423.56;4236943;27;20538;-71
2022/08/26 01:36:01;;;;;;;16.10;9.57;;;;;;;16.47;87.80;98435.53;4238225;27;20047;-71
2022/08/26 01:38:02;;;;;;;17.20;9.63;;;;;;;16.43;88.34;98431.97;4237920;27;20079;-71
2022/08/26 01:40:06;;;;;;;18.45;9.73;;;;;;;16.47;88.25;98431.94;4237539;27;20035;-71
2022/08/26 01:42:09;;;;;;;13.82;9.68;;;;;;;16.44;88.07;98430.75;4237930;27;20091;-71
2022/08/26 01:44:15;;;;;;;22.73;11.00;;;;;;;16.42;88.43;98429.59;4237963;27;20079;-71
2022/08/26 01:46:17;;;;;;;30.02;12.23;;;;;;;16.39;88.63;98438.84;4238036;27;20463;-71
2022/08/26 01:48:21;;;;;;;21.05;10.75;;;;;;;16.34;89.35;98434.50;4219503;28;20051;-71
2022/08/26 01:50:29;;;;;;;20.30;10.88;;;;;;;16.31;88.36;98438.13;4237386;27;20046;-71
2022/08/26 01:52:34;;;;;;;17.33;11.73;;;;;;;16.32;87.21;98436.91;4238134;27;20057;-71
2022/08/26 01:54:35;;;;;;;17.25;10.48;;;;;;;16.31;86.45;98438.13;4237711;27;20126;-71
2022/08/26 01:56:36;;;;;;;16.02;9.93;;;;;;;16.28;87.04;98428.56;4237899;27;20050;-71
2022/08/26 01:58:42;;;;;;;16.05;9.43;;;;;;;16.27;87.29;98435.38;4237519;27;20051;-71
2022/08/26 02:00:44;;;;;;;20.30;10.52;;;;;;;16.26;85.60;98430.19;4238263;27;20048;-71
2022/08/26 02:03:15;;;;;;;17.02;10.30;;;;;;;16.23;86.50;98442.22;4236980;27;20071;-71
2022/08/26 02:05:15;;;;;;;20.10;10.45;;;;;;;16.18;87.44;98428.69;4236934;27;20055;-71
2022/08/26 02:07:19;;;;;;;23.42;10.85;;;;;;;16.17;88.29;98429.91;4236215;27;20518;-71
2022/08/26 02:09:20;;;;;;;18.92;10.15;;;;;;;16.16;88.15;98426.34;4237154;27;20318;-71
2022/08/26 02:11:21;;;;;;;19.52;9.95;;;;;;;16.15;87.51;98426.75;4236211;27;20413;-71
2022/08/26 02:13:25;;;;;;;20.17;11.18;;;;;;;16.15;87.99;98418.38;4228584;27;20086;-71
2022/08/26 02:15:25;;;;;;;20.63;11.60;;;;;;;16.13;89.20;98426.34;4219413;28;20051;-71
2022/08/26 02:17:32;;;;;;;18.42;11.52;;;;;;;16.12;89.74;98427.56;4237159;27;20126;-71
2022/08/26 02:19:38;;;;;;;21.70;10.93;;;;;;;16.11;90.85;98423.19;4236292;27;20077;-71
2022/08/26 02:21:39;;;;;;;21.25;10.93;;;;;;;16.08;91.13;98427.63;4237354;27;20043;-71
2022/08/26 02:23:40;;;;;;;20.30;10.87;;;;;;;16.08;91.35;98424.84;4237822;27;20352;-71
2022/08/26 02:25:50;;;;;;;16.35;11.30;;;;;;;16.08;91.60;98426.84;4237241;27;20039;-71
2022/08/26 02:27:51;;;;;;;20.38;10.57;;;;;;;16.02;91.35;98420.91;4236512;27;20043;-71
2022/08/26 02:30:01;;;;;;;20.35;12.30;;;;;;;16.01;91.38;98419.31;4236847;27;20130;-71
2022/08/26 02:32:02;;;;;;;19.23;11.30;;;;;;;15.98;91.53;98407.00;4237454;27;20544;-71
2022/08/26 02:34:18;;;;;;;25.50;11.55;;;;;;;15.97;91.05;98411.00;4236472;27;20035;-71
2022/08/26 02:36:21;;;;;;;19.05;11.07;;;;;;;15.92;91.39;98414.25;4238034;27;20074;-71
2022/08/26 02:38:22;;;;;;;24.00;12.60;;;;;;;15.88;91.96;98415.47;4236938;27;20058;-71
2022/08/26 02:40:30;;;;;;;22.38;12.07;;;;;;;15.81;93.11;98407.22;4237058;27;20325;-71
2022/08/26 02:42:34;;;;;;;25.27;13.15;;;;;;;15.77;93.21;98401.66;4237070;27;20366;-71
2022/08/26 02:44:35;;;;;;;21.48;11.98;;;;;;;15.72;93.18;98402.09;4236807;27;20047;-71
2022/08/26 02:46:36;;;;;;;23.70;11.13;;;;;;;15.68;92.54;98398.56;4236752;27;20150;-71
2022/08/26 02:48:37;;;;;;;24.55;11.82;;;;;;;15.71;91.08;98401.28;4236560;27;20227;-71
2022/08/26 02:50:38;;;;;;;15.48;10.75;;;;;;;15.74;90.82;98402.50;4237258;27;20146;-71
2022/08/26 02:52:38;;;;;;;18.65;11.05;;;;;;;15.71;91.23;98404.09;4236968;27;20101;-71
2022/08/26 02:54:39;;;;;;;19.42;11.52;;;;;;;15.70;91.74;98398.94;4236736;27;20500;-71
2022/08/26 02:56:39;;;;;;;20.15;10.88;;;;;;;15.70;89.73;98398.94;4236541;27;20527;-71
2022/08/26 02:58:39;;;;;;;24.38;12.85;;;;;;;15.73;89.54;98401.69;4236372;27;20036;-71
2022/08/26 03:00:40;;;;;;;20.15;11.52;;;;;;;15.80;88.77;98391.66;4237000;27;20043;-71
2022/08/26 03:02:47;;;;;;;18.40;11.90;;;;;;;15.81;88.50;98401.63;4236436;27;20360;-71
2022/08/26 03:04:49;;;;;;;21.42;11.23;;;;;;;15.80;88.87;98400.81;4236951;27;20062;-71
2022/08/26 03:06:49;;;;;;;19.73;11.37;;;;;;;15.81;87.37;98396.84;4233013;27;20043;-71
2022/08/26 03:08:50;;;;;;;16.67;10.52;;;;;;;15.82;87.49;98395.63;4236379;27;20269;-71
2022/08/26 03:10:51;;;;;;;27.58;11.45;;;;;;;15.78;87.92;98403.22;4236801;27;20078;-71
2022/08/26 03:12:52;;;;;;;17.77;10.20;;;;;;;15.70;88.31;98405.28;4237178;27;20100;-71
2022/08/26 03:14:52;;;;;;;18.77;10.60;;;;;;;15.66;88.72;98401.78;4236451;27;20104;-71
2022/08/26 03:16:53;;;;;;;15.30;11.43;;;;;;;15.64;88.88;98401.41;4235679;27;20154;-71
2022/08/26 03:18:53;;;;;;;21.52;11.55;;;;;;;15.56;89.88;98405.44;4236477;27;20247;-70
2022/08/26 03:20:54;;;;;;;19.98;11.90;;;;;;;15.43;92.05;98398.78;4236647;27;20118;-70
2022/08/26 03:22:55;;;;;;;23.33;11.70;;;;;;;15.38;92.55;98399.19;4227943;27;20053;-71
2022/08/26 03:24:56;;;;;;;21.42;11.25;;;;;;;15.38;91.06;98400.00;4236284;27;20054;-71
2022/08/26 03:26:56;;;;;;;17.73;11.32;;;;;;;15.36;90.30;98396.84;4236527;27;20039;-71
2022/08/26 03:31:35;;;;;;;17.63;11.70;;;;;;;15.37;91.69;98398.41;4197581;28;20055;-71
2022/08/26 03:33:35;;;;;;;20.58;12.10;;;;;;;15.36;92.11;98401.63;4200986;28;20048;-71
2022/08/26 03:35:37;;;;;;;27.48;11.75;;;;;;;15.33;90.90;98394.09;4198014;28;20131;-71
2022/08/26 03:37:38;;;;;;;23.05;12.05;;;;;;;15.29;91.90;98399.69;4232084;27;20054;-71
2022/08/26 03:39:40;;;;;;;16.25;11.02;;;;;;;15.29;91.75;98401.69;4235463;27;20042;-71
2022/08/26 03:41:41;;;;;;;15.63;11.43;;;;;;;15.28;92.50;98391.72;4235445;27;20212;-71
2022/08/26 03:43:50;;;;;;;18.75;11.70;;;;;;;15.26;93.27;98391.38;4235876;27;20100;-70
2022/08/26 03:45:50;;;;;;;20.00;11.77;;;;;;;15.24;93.82;98394.56;4234856;27;20043;-71
2022/08/26 03:47:51;;;;;;;23.55;12.32;;;;;;;15.27;92.09;98392.94;4235521;27;20865;-71
2022/08/26 03:49:51;;;;;;;26.10;13.00;;;;;;;15.26;93.40;98388.56;4235450;27;20049;-71
2022/08/26 03:51:52;;;;;;;24.98;11.98;;;;;;;15.23;93.97;98390.19;4235568;27;20055;-71
2022/08/26 03:54:02;;;;;;;;;;;;;;;;;;;;;
2022/08/26 03:56:03;;;;;;;21.10;11.95;;;;;;;15.14;92.89;98390.66;4231612;27;21611;-71
2022/08/26 03:58:04;;;;;;;18.48;11.60;;;;;;;15.12;93.11;98390.25;4234286;27;20042;-71
2022/08/26 04:00:07;;;;;;;20.88;12.45;;;;;;;15.12;92.97;98395.84;4233445;27;20474;-70
2022/08/26 04:02:07;;;;;;;19.00;11.07;;;;;;;15.10;93.23;98389.88;4233483;27;20038;-71
2022/08/26 04:04:07;;;;;;;28.15;12.55;;;;;;;15.13;92.33;98382.69;4234004;27;20019;-71
2022/08/26 04:06:08;;;;;;;21.85;11.80;;;;;;;15.13;91.58;98389.06;4234501;27;20437;-71
2022/08/26 04:08:08;;;;;;;19.48;12.13;;;;;;;15.14;91.71;98382.31;4234245;27;20459;-71
2022/08/26 04:10:11;;;;;;;17.45;11.77;;;;;;;15.12;92.38;98384.69;4234135;27;20023;-71
2022/08/26 04:12:11;;;;;;;;;;;;;;;15.08;92.65;98386.72;4235380;27;20549;-71
2022/08/26 04:14:15;;;;;;;16.38;10.70;;;;;;;15.09;91.21;98379.94;4235692;27;19951;-71
2022/08/26 04:16:17;;;;;;;22.98;11.90;;;;;;;15.09;91.19;98373.59;4234506;27;20027;-71
2022/08/26 04:18:17;;;;;;;32.33;13.35;;;;;;;15.08;90.78;98381.16;4235090;27;20073;-71
2022/08/26 04:20:18;;;;;;;26.35;12.30;;;;;;;15.03;91.32;98376.00;4233309;28;20483;-70
2022/08/26 04:22:18;;;;;;;23.23;12.25;;;;;;;14.99;92.64;98380.03;4235374;28;20030;-70
2022/08/26 04:24:21;;;;;;;16.90;10.88;;;;;;;14.93;93.21;98385.25;4235168;28;20467;-70
2022/08/26 04:26:23;;;;;;;14.93;10.18;;;;;;;14.88;93.28;98391.25;4235339;28;20483;-70
2022/08/26 04:28:23;;;;;;;17.35;11.13;;;;;;;14.85;92.73;98383.72;4234872;28;20039;-70
2022/08/26 04:30:24;;;;;;;21.80;11.73;;;;;;;14.84;93.83;98382.94;4235240;28;20451;-71
2022/08/26 04:32:24;;;;;;;19.88;11.77;;;;;;;14.82;93.84;98385.34;4235184;28;20099;-71
2022/08/26 04:34:27;;;;;;;20.13;10.60;;;;;;;14.85;93.91;98383.72;4235254;28;20486;-71
2022/08/26 04:36:27;;;;;;;17.02;11.20;;;;;;;14.84;93.89;98391.28;4234953;27;20494;-71
2022/08/26 04:38:29;;;;;;;21.33;11.20;;;;;;;14.86;94.19;98386.09;4234952;28;20125;-71
2022/08/26 04:40:29;;;;;;;18.00;11.23;;;;;;;14.89;93.59;98381.69;4235231;28;20054;-71
2022/08/26 04:42:32;;;;;;;20.23;10.80;;;;;;;14.92;92.87;98388.44;4235060;28;20039;-70
2022/08/26 04:44:33;;;;;;;;;;;;;;;14.94;92.64;98391.63;4234288;28;20047;-71
2022/08/26 04:46:34;;;;;;;21.60;10.45;;;;;;;14.98;92.37;98392.41;4235153;28;20307;-70
2022/08/26 04:48:34;;;;;;;19.98;10.77;;;;;;;15.01;91.86;98399.91;4174521;27;20058;-70
2022/08/26 04:50:34;;;;;;;31.67;11.57;;;;;;;15.06;91.31;98396.69;4233898;28;20043;-70
2022/08/26 04:52:35;;;;;;;20.25;11.15;;;;;;;15.13;90.05;98407.78;4234733;28;20047;-70
2022/08/26 04:54:35;;;;;;;22.83;11.20;;;;;;;15.09;90.88;98396.66;4235153;28;20482;-70
2022/08/26 04:56:40;;;;;;;21.15;11.82;;;;;;;15.03;91.77;98403.88;4234493;28;20043;-70
2022/08/26 04:58:40;;;;;;;19.70;11.25;;;;;;;15.07;92.42;98412.22;4234859;28;20084;-70
2022/08/26 05:00:43;;;;;;;20.20;11.50;;;;;;;15.05;92.66;98409.03;4235199;28;20071;-71
2022/08/26 05:02:44;;;;;;;;;;;;;;;15.08;93.36;98416.59;4235529;28;20051;-71
2022/08/26 05:04:45;;;;;;;23.75;13.05;;;;;;;15.08;94.61;98414.59;4235088;28;19915;-70
2022/08/26 05:06:47;;;;;;;25.52;14.70;;;;;;;15.09;95.63;98420.97;4234936;28;20539;-70
2022/08/26 05:08:47;;;;;;;22.23;13.47;;;;;;;15.11;95.86;98408.19;4235397;28;20154;-71
2022/08/26 05:10:51;;;;;;;26.38;14.23;;;;;;;15.15;96.72;98408.97;4235390;28;20062;-70
2022/08/26 05:12:51;;;;;;;23.52;14.38;;;;;;;15.20;96.46;98413.28;4233625;28;20070;-71
2022/08/26 05:14:52;;;;;;;20.63;12.57;;;;;;;15.24;96.06;98416.88;4232482;28;20086;-70
2022/08/26 05:16:52;;;;;;;21.45;12.70;;;;;;;15.27;95.62;98415.25;4233761;28;20042;-70
2022/08/26 05:18:53;;;;;;;30.85;13.68;;;;;;;15.35;94.22;98413.97;4233610;28;20035;-70
2022/08/26 05:20:54;;;;;;;19.63;11.90;;;;;;;15.43;93.11;98418.28;4237149;27;20043;-70
2022/08/26 05:22:55;;;;;;;18.60;13.40;;;;;;;15.51;92.82;98414.22;4239321;27;20055;-71
2022/08/26 05:24:55;;;;;;;26.63;13.32;;;;;;;15.62;91.24;98414.94;4237192;27;20515;-71
2022/08/26 05:26:56;;;;;;;19.95;13.27;;;;;;;15.72;90.34;98407.66;4237881;27;20047;-71
2022/08/26 05:28:56;;;;;;;22.88;14.23;;;;;;;15.85;90.72;98413.53;4237047;27;20331;-70
2022/08/26 05:30:57;;;;;;;17.73;12.30;;;;;;;15.93;90.52;98409.44;4238596;27;20039;-71
2022/08/26 05:32:57;;;;;;;19.90;13.45;;;;;;;16.00;91.02;98412.16;4237984;27;20043;-71
2022/08/26 05:34:58;;;;;;;21.33;13.75;;;;;;;16.09;90.14;98409.66;4238445;27;20111;-70
2022/08/26 05:36:58;;;;;;;23.88;14.90;;;;;;;16.18;89.97;98407.16;4240240;27;20067;-70
2022/08/26 05:39:00;;;;;;;22.63;13.98;;;;;;;16.25;91.34;98407.06;4237842;27;20078;-70
2022/08/26 05:41:00;;;;;;;21.27;13.73;;;;;;;16.33;90.74;98413.38;4238437;27;20047;-70
2022/08/26 05:43:01;;;;;;;16.77;13.35;;;;;;;16.39;90.06;98411.69;4238963;27;20475;-71
2022/08/26 05:45:04;;;;;;;22.17;13.35;;;;;;;16.44;88.92;98413.22;4238562;27;20039;-71
2022/08/26 05:47:06;;;;;;;22.60;15.02;;;;;;;16.49;89.50;98407.19;4238733;27;20160;-71
2022/08/26 05:49:07;;;;;;;21.90;13.70;;;;;;;16.54;89.33;98403.91;4238464;27;20051;-71
2022/08/26 05:51:09;;;;;;;26.63;15.10;;;;;;;16.62;88.81;98410.19;4238703;27;20281;-71
2022/08/26 05:53:11;;;;;;;24.20;13.60;;;;;;;16.71;89.17;98407.69;4238722;27;20082;-71
2022/08/26 05:55:11;;;;;;;25.48;14.27;;;;;;;16.78;89.08;98413.19;4238314;27;20035;-70
2022/08/26 05:57:12;;;;;;;27.88;14.90;;;;;;;16.84;88.79;98409.50;4238152;27;20521;-70
2022/08/26 05:59:13;;;;;;;23.10;15.48;;;;;;;16.94;88.93;98412.56;4237983;27;20206;-70
2022/08/26 06:01:18;;;;;;;23.23;14.98;;;;;;;17.05;90.50;98414.00;4238583;27;20081;-70
2022/08/26 06:03:18;;;;;;;31.02;14.95;;;;;;;17.15;91.24;98405.84;4238071;27;20130;-71
2022/08/26 06:05:19;;;;;;;32.20;16.27;;;;;;;17.23;92.01;98408.09;4238373;27;20506;-71
2022/08/26 06:08:09;;;;;;;26.67;15.90;;;;;;;17.32;92.04;98407.56;4238572;27;20043;-71
2022/08/26 06:09:40;;;;;;;27.20;15.35;;;;;;;17.46;92.41;98409.31;4237405;27;20065;-71
2022/08/26 06:11:40;;;;;;;27.52;16.40;;;;;;;17.55;91.91;98401.97;4237792;27;20481;-71
2022/08/26 06:13:41;;;;;;;23.63;15.98;;;;;;;17.67;91.83;98406.94;4238355;27;20050;-71
2022/08/26 06:15:44;;;;;;;28.50;15.60;;;;;;;17.76;91.54;98403.63;4238573;27;20088;-71
2022/08/26 06:17:44;;;;;;;25.90;16.00;;;;;;;17.89;90.47;98404.56;4238079;27;20043;-71
2022/08/26 06:19:45;;;;;;;23.20;15.40;;;;;;;18.04;90.32;98395.88;4237269;27;20051;-71
2022/08/26 06:21:47;;;;;;;30.75;16.35;;;;;;;18.18;90.31;98395.59;4237970;27;20039;-71
2022/08/26 06:26:09;;;;;;;27.80;15.07;;;;;;;18.41;87.33;98398.31;4235650;27;20440;-71
2022/08/26 06:28:10;;;;;;;25.05;14.18;;;;;;;18.52;84.89;98409.28;4237760;27;20194;-71
2022/08/26 06:30:11;;;;;;;22.65;13.75;;;;;;;18.65;82.33;98398.22;4237467;27;20076;-71
2022/08/26 06:32:11;;;;;;;19.33;14.05;;;;;;;18.84;85.91;98400.22;4236854;27;20026;-71
2022/08/26 06:34:11;;;;;;;19.52;14.10;;;;;;;18.98;83.42;98404.72;4237303;27;20453;-71
2022/08/26 06:36:18;;;;;;;24.45;15.98;;;;;;;19.12;85.05;98407.19;4238143;27;20509;-71
2022/08/26 06:38:18;;;;;;;29.85;16.23;;;;;;;19.24;84.08;98412.09;4237301;27;20039;-71
2022/08/26 06:40:21;;;;;;;23.20;14.90;;;;;;;19.34;84.83;98413.81;4237263;27;20031;-71
2022/08/26 06:42:21;;;;;;;20.92;14.30;;;;;;;19.48;84.85;98411.91;4237693;27;20447;-71
2022/08/26 06:44:22;;;;;;;23.98;15.63;;;;;;;19.61;84.53;98419.22;4238007;27;20110;-71
2022/08/26 06:46:23;;;;;;;18.20;13.10;;;;;;;19.69;82.68;98414.19;4238244;27;20062;-71
2022/08/26 06:48:23;;;;;;;18.63;12.88;;;;;;;19.79;79.05;98410.31;4237142;27;20043;-71
2022/08/26 06:50:23;;;;;;;19.65;13.55;;;;;;;19.87;77.73;98422.16;4237143;27;20278;-71
2022/08/26 06:52:24;;;;;;;24.00;14.35;;;;;;;19.95;80.14;98426.34;4237703;27;20047;-71
2022/08/26 06:54:26;;;;;;;22.58;14.15;;;;;;;20.01;81.51;98416.13;4237373;27;20043;-71
2022/08/26 06:56:32;;;;;;;21.77;13.35;;;;;;;20.11;79.24;98419.91;4237623;27;20039;-71
2022/08/26 06:58:34;;;;;;;29.48;15.52;;;;;;;20.17;81.59;98418.88;4236124;27;20043;-71
2022/08/26 07:00:35;;;;;;;23.45;14.88;;;;;;;20.25;83.33;98419.47;4237044;27;20049;-71
2022/08/26 07:02:36;;;;;;;31.33;15.63;;;;;;;20.27;82.52;98419.81;4237863;27;20482;-71
2022/08/26 07:04:36;;;;;;;27.08;16.00;;;;;;;20.27;82.75;98419.81;4237271;27;20065;-71
2022/08/26 07:06:39;;;;;;;26.15;16.92;;;;;;;20.23;82.71;98418.34;4237568;27;20452;-71
2022/08/26 07:08:39;;;;;;;;;;;;;;;20.23;82.91;98416.34;4237277;27;20386;-72
2022/08/26 07:10:41;;;;;;;29.90;15.57;;;;;;;20.18;82.66;98414.84;4237157;27;20434;-71
2022/08/26 07:12:42;;;;;;;24.40;15.27;;;;;;;20.15;83.01;98412.16;4237369;27;20494;-71
2022/08/26 07:14:42;;;;;;;24.98;14.88;;;;;;;20.18;83.51;98416.88;4237460;27;20047;-71
2022/08/26 07:16:43;;;;;;;24.48;16.55;;;;;;;20.18;83.98;98416.88;4238033;27;20047;-71
2022/08/26 07:18:45;;;;;;;31.67;16.27;;;;;;;20.18;84.90;98416.88;4236780;27;20480;-71
2022/08/26 07:20:45;;;;;;;29.70;16.70;;;;;;;20.20;84.89;98425.66;4237232;27;20130;-71
2022/08/26 07:22:45;;;;;;;27.92;15.52;;;;;;;20.20;84.62;98415.22;4237072;27;20059;-71
2022/08/26 07:24:46;;;;;;;27.35;16.38;;;;;;;20.23;84.13;98423.97;4237183;27;20505;-71
2022/08/26 07:26:46;;;;;;;25.10;16.60;;;;;;;20.29;84.29;98425.00;4236641;27;20298;-71
2022/08/26 07:28:49;;;;;;;27.15;14.75;;;;;;;20.28;83.97;98420.63;4236583;27;20134;-71
2022/08/26 07:30:50;;;;;;;23.52;14.63;;;;;;;20.31;84.00;98422.53;4237154;27;20560;-71
2022/08/26 07:32:50;;;;;;;29.30;14.20;;;;;;;20.33;84.03;98426.47;4237106;27;20054;-71
2022/08/26 07:34:51;;;;;;;24.98;14.55;;;;;;;20.30;80.85;98421.75;4236973;27;20047;-71
2022/08/26 07:36:51;;;;;;;20.80;13.57;;;;;;;20.34;79.84;98427.25;4237249;27;20074;-71
2022/08/26 07:38:52;;;;;;;18.23;13.63;;;;;;;20.37;79.50;98432.00;4236116;27;20039;-71
2022/08/26 07:40:52;;;;;;;24.83;14.00;;;;;;;20.40;77.93;98433.91;4237470;27;20039;-71
2022/08/26 07:42:52;;;;;;;30.85;15.18;;;;;;;20.42;81.30;98435.03;4236564;27;20138;-71
2022/08/26 07:44:55;;;;;;;23.13;15.40;;;;;;;20.47;81.32;98426.09;4237090;27;20051;-71
2022/08/26 07:46:56;;;;;;;27.42;15.88;;;;;;;20.53;81.66;98431.19;4237309;27;20125;-71
2022/08/26 07:48:57;;;;;;;29.67;15.02;;;;;;;20.54;81.41;98422.28;4236067;27;20093;-71
2022/08/26 07:50:58;;;;;;;25.95;15.00;;;;;;;20.64;81.66;98429.63;4236624;27;20745;-71
2022/08/26 07:53:00;;;;;;;22.83;13.95;;;;;;;20.69;81.74;98429.06;4236674;27;20043;-71
2022/08/26 07:55:01;;;;;;;29.60;14.80;;;;;;;20.78;81.54;98427.63;4236822;27;20379;-71
2022/08/26 07:57:03;;;;;;;22.60;14.57;;;;;;;20.92;80.95;98429.97;4236455;27;20035;-71
2022/08/26 07:59:03;;;;;;;23.17;13.88;;;;;;;21.01;80.77;98427.28;4235759;27;20146;-71
2022/08/26 08:01:04;;;;;;;28.50;15.25;;;;;;;21.17;80.15;98437.63;4236960;27;20127;-71
2022/08/26 08:03:05;;;;;;;24.35;14.15;;;;;;;21.27;76.64;98425.31;4217977;28;20054;-71
2022/08/26 08:05:05;;;;;;;21.95;12.85;;;;;;;21.39;78.64;98437.78;4236509;27;20054;-71
2022/08/26 08:07:06;;;;;;;21.52;13.55;;;;;;;21.52;78.94;98444.19;4235986;27;20046;-71
2022/08/26 08:09:06;;;;;;;25.90;13.43;;;;;;;21.60;77.95;98420.19;4236105;27;20051;-71
2022/08/26 08:11:07;;;;;;;27.73;14.73;;;;;;;21.72;77.91;98427.81;4236912;27;20107;-71
2022/08/26 08:13:07;;;;;;;27.58;13.68;;;;;;;21.82;78.15;98423.81;4236650;27;20493;-71
2022/08/26 08:15:09;;;;;;;23.90;13.32;;;;;;;21.92;77.15;98424.69;4236394;27;20047;-71
2022/08/26 08:17:09;;;;;;;25.03;12.77;;;;;;;22.05;77.07;98425.44;4236623;27;20752;-71
2022/08/26 08:19:10;;;;;;;23.40;14.73;;;;;;;22.18;76.11;98428.25;4235789;27;20035;-71
2022/08/26 08:21:11;;;;;;;22.70;13.05;;;;;;;22.25;74.96;98427.97;4236483;28;20043;-71
2022/08/26 08:23:11;;;;;;;21.50;12.48;;;;;;;22.37;76.15;98420.72;4235688;28;20425;-71
2022/08/26 08:25:12;;;;;;;32.58;14.40;;;;;;;22.52;75.88;98418.16;4236442;28;20057;-71
2022/08/26 08:27:12;;;;;;;23.85;13.93;;;;;;;22.75;74.75;98419.66;4236576;28;20142;-71
2022/08/26 08:29:12;;;;;;;28.15;13.02;;;;;;;22.89;73.95;98419.94;4235879;28;20058;-71
2022/08/26 08:31:21;;;;;;;24.00;12.85;;;;;;;22.99;71.32;98415.13;4236162;28;20072;-71
2022/08/26 08:33:22;;;;;;;29.73;14.35;;;;;;;23.12;72.51;98409.38;4236150;28;20491;-71
2022/08/26 08:35:25;;;;;;;34.22;13.23;;;;;;;23.23;72.38;98402.06;4236412;28;20055;-71
2022/08/26 08:37:25;;;;;;;;;;;;;;;23.35;72.23;98406.03;4237015;27;20467;-71
2022/08/26 08:39:25;;;;;;;30.38;13.82;;;;;;;23.46;71.33;98397.88;4236111;28;19968;-71
2022/08/26 08:41:35;;;;;;;31.52;14.43;;;;;;;23.39;72.05;98403.03;4236102;28;20232;-71
2022/08/26 08:43:42;;;;;;;18.70;12.63;;;;;;;23.42;71.20;98393.66;4235705;28;20031;-71
2022/08/26 08:45:50;;;;;;;27.48;13.10;;;;;;;23.50;71.15;98398.53;4236067;28;20047;-71
2022/08/26 08:47:55;;;;;;;26.50;12.90;;;;;;;23.59;69.03;98392.13;4236193;28;20031;-72
2022/08/26 08:50:10;;;;;;;27.92;12.32;;;;;;;23.70;70.39;98398.13;4235504;28;20050;-71
2022/08/26 08:52:28;;;;;;;32.80;13.18;;;;;;;23.74;70.03;98384.59;4235875;28;20379;-72
2022/08/26 08:54:30;;;;;;;30.88;12.30;;;;;;;23.76;69.47;98390.59;4235678;27;20035;-71
2022/08/26 08:56:36;;;;;;;23.20;11.45;;;;;;;23.84;69.25;98393.91;4239721;27;20360;-72
2022/08/26 08:58:39;;;;;;;33.20;12.25;;;;;;;23.88;69.40;98385.25;4238500;27;20039;-71
2022/08/26 09:00:50;;;;;;;21.42;11.45;;;;;;;23.88;68.44;98377.56;4239651;27;20142;-71
2022/08/26 09:03:17;;;;;;;19.48;11.07;;;;;;;23.93;68.70;98371.31;4239268;27;20424;-71
2022/08/26 09:05:24;;;;;;;24.52;11.50;;;;;;;24.03;67.96;98369.25;4238785;27;20047;-72
2022/08/26 09:07:38;;;;;;;27.42;12.00;;;;;;;24.12;66.68;98365.63;4239112;27;20039;-71
2022/08/26 09:09:44;;;;;;;31.25;12.10;;;;;;;24.24;67.83;98361.84;4238753;27;20186;-71
2022/08/26 09:11:45;;;;;;;23.70;11.18;;;;;;;24.35;67.01;98368.63;4239320;27;20049;-71
2022/08/26 09:13:51;;;;;;;19.55;10.68;;;;;;;24.41;66.31;98363.13;4239102;27;20457;-71
2022/08/26 09:16:05;;;;;;;21.73;11.48;;;;;;;24.45;64.96;98377.06;4239289;27;20043;-71
2022/08/26 09:18:30;;;;;;;24.80;11.20;;;;;;;24.46;65.22;98359.63;4239063;27;20327;-71
2022/08/26 09:20:52;;;;;;;21.65;9.90;;;;;;;24.54;65.31;98362.91;4238344;27;20053;-71
2022/08/26 09:22:52;;;;;;;25.10;10.48;;;;;;;24.65;64.99;98366.00;4239009;27;20082;-71
2022/08/26 09:24:52;;;;;;;19.25;11.07;;;;;;;24.80;64.00;98366.91;4239126;27;20576;-71
2022/08/26 09:26:56;;;;;;;36.80;11.30;;;;;;;24.80;63.79;98355.59;4239060;27;20099;-71
2022/08/26 09:28:59;;;;;;;20.85;10.68;;;;;;;24.83;64.02;98351.81;4238309;27;20103;-71
2022/08/26 09:31:02;;;;;;;19.70;10.07;;;;;;;24.91;64.66;98346.59;4239061;27;20416;-72
2022/08/26 09:33:09;;;;;;;23.95;11.27;;;;;;;25.04;63.94;98346.41;4238981;27;20050;-72